Main page
METAR-TAF:

METAR-TAF

Airports :

Moroni, Comoros

Prince Said Ibrahim International Airport

latitude: 11-32S, longitude: 043-16E, elevation: 29 m

Current weather observation

The report was made 25 minutes ago, at 17:00 UTC
Wind 9 kt from the East
Temperature 25°C
Humidity 83%
Pressure 1018 hPa
Visibility 10 km or more
Few clouds at a height of 2000 ft

METAR: FMCH 281700Z 08009KT 9999 FEW020 25/22 Q1018 NOSIG

Time: 20:25 (17:25 UTC)

Forecast

The report was made 6 hours and 25 minutes ago, at 11:00 UTC
Forecast valid from 28 at 12 UTC to 29 at 18 UTC
Wind 10 kt from the Southwest
Visibility 10 km or more
Few clouds at a height of 2000 ft
Becoming
from 28 at 16 UTC to 28 at 18 UTC
Wind 3 kt from the East
Becoming
from 29 at 03 UTC to 29 at 05 UTC
Wind 12 kt from the South/Southwest

TAF: FMCH 281100Z 2812/2918 22010KT 9999 FEW020 BECMG 2816/2818 10003KT BECMG 2903/2905 20012KT

Weather observations and forecasts of more than 4000 airports (METAR and TAF reports).

The available stations are represented by yellow and red dots on the map.

Hover mouse over dot to see the name of the station.

Then click to see weather observations and forecasts.

To change the map : click on the green buttons with a black cross to zoom in, on the green button with a dash to zoom out, or on the green arrows for adjacent maps.


METAR-TAF: